sensor_id;sensor_type;location;lat;lon;timestamp;P1;P2;P0
65012;PMS5003;51715;39.432;-77.518;2023-04-03T00:01:20;4;4;
65012;PMS5003;51715;39.432;-77.518;2023-04-03T00:03:49;8;7;
65012;PMS5003;51715;39.432;-77.518;2023-04-03T00:06:18;8;8;
65012;PMS5003;51715;39.432;-77.518;2023-04-03T00:08:49;9;7;
65012;PMS5003;51715;39.432;-77.518;2023-04-03T00:11:18;14;13;
65012;PMS5003;51715;39.432;-77.518;2023-04-03T00:13:47;17;17;
65012;PMS5003;51715;39.432;-77.518;2023-04-03T00:16:16;13;12;
65012;PMS5003;51715;39.432;-77.518;2023-04-03T00:18:44;12;12;
65012;PMS5003;51715;39.432;-77.518;2023-04-03T00:21:13;13;13;
65012;PMS5003;51715;39.432;-77.518;2023-04-03T00:23:41;11;11;
65012;PMS5003;51715;39.432;-77.518;2023-04-03T00:26:10;12;10;
65012;PMS5003;51715;39.432;-77.518;2023-04-03T00:28:39;13;13;
65012;PMS5003;51715;39.432;-77.518;2023-04-03T00:31:08;15;13;
65012;PMS5003;51715;39.432;-77.518;2023-04-03T00:33:37;15;15;
65012;PMS5003;51715;39.432;-77.518;2023-04-03T00:36:06;12;11;
65012;PMS5003;51715;39.432;-77.518;2023-04-03T00:38:35;11;11;
65012;PMS5003;51715;39.432;-77.518;2023-04-03T00:41:05;11;10;
65012;PMS5003;51715;39.432;-77.518;2023-04-03T00:43:34;15;12;
65012;PMS5003;51715;39.432;-77.518;2023-04-03T00:46:04;19;17;
65012;PMS5003;51715;39.432;-77.518;2023-04-03T00:48:34;25;21;
65012;PMS5003;51715;39.432;-77.518;2023-04-03T00:51:07;27;26;
65012;PMS5003;51715;39.432;-77.518;2023-04-03T00:53:40;21;19;
65012;PMS5003;51715;39.432;-77.518;2023-04-03T00:56:14;18;15;
65012;PMS5003;51715;39.432;-77.518;2023-04-03T00:58:46;17;16;
65012;PMS5003;51715;39.432;-77.518;2023-04-03T01:01:20;18;18;
65012;PMS5003;51715;39.432;-77.518;2023-04-03T01:03:52;18;14;
65012;PMS5003;51715;39.432;-77.518;2023-04-03T01:06:23;12;12;
65012;PMS5003;51715;39.432;-77.518;2023-04-03T01:08:56;15;15;
65012;PMS5003;51715;39.432;-77.518;2023-04-03T01:11:25;13;12;
65012;PMS5003;51715;39.432;-77.518;2023-04-03T01:13:54;11;10;
65012;PMS5003;51715;39.432;-77.518;2023-04-03T01:16:22;9;9;
65012;PMS5003;51715;39.432;-77.518;2023-04-03T01:18:51;9;7;
65012;PMS5003;51715;39.432;-77.518;2023-04-03T01:21:30;13;10;
65012;PMS5003;51715;39.432;-77.518;2023-04-03T01:24:18;10;10;
65012;PMS5003;51715;39.432;-77.518;2023-04-03T01:26:53;10;10;
65012;PMS5003;51715;39.432;-77.518;2023-04-03T01:29:22;9;6;
65012;PMS5003;51715;39.432;-77.518;2023-04-03T01:31:53;14;9;
65012;PMS5003;51715;39.432;-77.518;2023-04-03T01:34:23;9;9;
65012;PMS5003;51715;39.432;-77.518;2023-04-03T01:36:52;8;8;
65012;PMS5003;51715;39.432;-77.518;2023-04-03T01:39:22;7;7;
65012;PMS5003;51715;39.432;-77.518;2023-04-03T01:41:51;7;7;
65012;PMS5003;51715;39.432;-77.518;2023-04-03T01:44:20;7;6;
65012;PMS5003;51715;39.432;-77.518;2023-04-03T01:46:48;15;13;
65012;PMS5003;51715;39.432;-77.518;2023-04-03T01:49:17;10;10;
65012;PMS5003;51715;39.432;-77.518;2023-04-03T01:51:46;12;12;
65012;PMS5003;51715;39.432;-77.518;2023-04-03T01:54:14;12;12;
65012;PMS5003;51715;39.432;-77.518;2023-04-03T01:56:43;16;14;
65012;PMS5003;51715;39.432;-77.518;2023-04-03T01:59:12;10;8;
65012;PMS5003;51715;39.432;-77.518;2023-04-03T02:01:40;10;9;
65012;PMS5003;51715;39.432;-77.518;2023-04-03T02:04:10;9;9;
65012;PMS5003;51715;39.432;-77.518;2023-04-03T02:06:39;13;12;
65012;PMS5003;51715;39.432;-77.518;2023-04-03T02:09:08;9;8;
65012;PMS5003;51715;39.432;-77.518;2023-04-03T02:11:35;9;9;
65012;PMS5003;51715;39.432;-77.518;2023-04-03T02:14:04;13;10;
65012;PMS5003;51715;39.432;-77.518;2023-04-03T02:16:32;16;10;
65012;PMS5003;51715;39.432;-77.518;2023-04-03T02:19:01;12;12;
65012;PMS5003;51715;39.432;-77.518;2023-04-03T02:21:31;9;8;
65012;PMS5003;51715;39.432;-77.518;2023-04-03T02:24:00;12;11;
65012;PMS5003;51715;39.432;-77.518;2023-04-03T02:26:28;17;11;
65012;PMS5003;51715;39.432;-77.518;2023-04-03T02:28:57;14;13;
65012;PMS5003;51715;39.432;-77.518;2023-04-03T02:31:25;13;13;
65012;PMS5003;51715;39.432;-77.518;2023-04-03T02:33:54;13;12;
65012;PMS5003;51715;39.432;-77.518;2023-04-03T02:36:22;12;8;
65012;PMS5003;51715;39.432;-77.518;2023-04-03T02:38:50;11;10;
65012;PMS5003;51715;39.432;-77.518;2023-04-03T02:41:20;8;8;
65012;PMS5003;51715;39.432;-77.518;2023-04-03T02:43:49;14;12;
65012;PMS5003;51715;39.432;-77.518;2023-04-03T02:46:18;14;9;
65012;PMS5003;51715;39.432;-77.518;2023-04-03T02:48:46;14;12;
65012;PMS5003;51715;39.432;-77.518;2023-04-03T02:51:15;10;8;
65012;PMS5003;51715;39.432;-77.518;2023-04-03T02:53:44;8;8;
65012;PMS5003;51715;39.432;-77.518;2023-04-03T02:56:13;12;12;
65012;PMS5003;51715;39.432;-77.518;2023-04-03T02:58:41;11;9;
65012;PMS5003;51715;39.432;-77.518;2023-04-03T03:01:09;14;11;
65012;PMS5003;51715;39.432;-77.518;2023-04-03T03:03:39;10;10;
65012;PMS5003;51715;39.432;-77.518;2023-04-03T03:06:08;14;13;
65012;PMS5003;51715;39.432;-77.518;2023-04-03T03:08:38;11;9;
65012;PMS5003;51715;39.432;-77.518;2023-04-03T03:11:09;12;10;
65012;PMS5003;51715;39.432;-77.518;2023-04-03T03:13:37;7;7;
65012;PMS5003;51715;39.432;-77.518;2023-04-03T03:16:07;11;8;
65012;PMS5003;51715;39.432;-77.518;2023-04-03T03:18:36;7;7;
65012;PMS5003;51715;39.432;-77.518;2023-04-03T03:21:04;8;7;
65012;PMS5003;51715;39.432;-77.518;2023-04-03T03:23:33;6;6;
65012;PMS5003;51715;39.432;-77.518;2023-04-03T03:26:03;7;6;
65012;PMS5003;51715;39.432;-77.518;2023-04-03T03:28:34;3;3;
65012;PMS5003;51715;39.432;-77.518;2023-04-03T03:31:04;5;5;
65012;PMS5003;51715;39.432;-77.518;2023-04-03T03:33:33;5;5;
65012;PMS5003;51715;39.432;-77.518;2023-04-03T03:36:02;8;6;
65012;PMS5003;51715;39.432;-77.518;2023-04-03T03:38:32;4;4;
65012;PMS5003;51715;39.432;-77.518;2023-04-03T03:41:01;3;3;
65012;PMS5003;51715;39.432;-77.518;2023-04-03T03:43:30;5;5;
65012;PMS5003;51715;39.432;-77.518;2023-04-03T03:45:59;6;3;
65012;PMS5003;51715;39.432;-77.518;2023-04-03T03:48:28;6;4;
65012;PMS5003;51715;39.432;-77.518;2023-04-03T03:50:56;6;6;
65012;PMS5003;51715;39.432;-77.518;2023-04-03T03:53:25;8;6;
65012;PMS5003;51715;39.432;-77.518;2023-04-03T03:55:53;5;4;
65012;PMS5003;51715;39.432;-77.518;2023-04-03T03:58:21;7;6;
65012;PMS5003;51715;39.432;-77.518;2023-04-03T04:03:59;12;9;
65012;PMS5003;51715;39.432;-77.518;2023-04-03T04:06:29;5;5;
65012;PMS5003;51715;39.432;-77.518;2023-04-03T04:08:57;4;4;
65012;PMS5003;51715;39.432;-77.518;2023-04-03T04:11:27;5;5;
65012;PMS5003;51715;39.432;-77.518;2023-04-03T04:13:55;5;5;
65012;PMS5003;51715;39.432;-77.518;2023-04-03T04:16:24;7;6;
65012;PMS5003;51715;39.432;-77.518;2023-04-03T04:18:52;11;9;
65012;PMS5003;51715;39.432;-77.518;2023-04-03T04:21:20;8;7;
65012;PMS5003;51715;39.432;-77.518;2023-04-03T04:23:49;8;6;
65012;PMS5003;51715;39.432;-77.518;2023-04-03T04:26:17;8;6;
65012;PMS5003;51715;39.432;-77.518;2023-04-03T04:28:45;7;7;
65012;PMS5003;51715;39.432;-77.518;2023-04-03T04:31:13;7;7;
65012;PMS5003;51715;39.432;-77.518;2023-04-03T04:33:42;10;7;
65012;PMS5003;51715;39.432;-77.518;2023-04-03T04:36:10;8;8;
65012;PMS5003;51715;39.432;-77.518;2023-04-03T04:38:39;10;8;
65012;PMS5003;51715;39.432;-77.518;2023-04-03T04:41:08;9;9;
65012;PMS5003;51715;39.432;-77.518;2023-04-03T04:43:36;11;8;
65012;PMS5003;51715;39.432;-77.518;2023-04-03T04:46:04;8;8;
65012;PMS5003;51715;39.432;-77.518;2023-04-03T04:48:34;13;11;
65012;PMS5003;51715;39.432;-77.518;2023-04-03T04:51:03;11;9;
65012;PMS5003;51715;39.432;-77.518;2023-04-03T04:53:32;11;11;
65012;PMS5003;51715;39.432;-77.518;2023-04-03T04:56:00;7;7;
65012;PMS5003;51715;39.432;-77.518;2023-04-03T04:58:29;12;7;
65012;PMS5003;51715;39.432;-77.518;2023-04-03T05:00:58;12;10;
65012;PMS5003;51715;39.432;-77.518;2023-04-03T05:03:27;10;8;
65012;PMS5003;51715;39.432;-77.518;2023-04-03T05:05:55;12;11;
65012;PMS5003;51715;39.432;-77.518;2023-04-03T05:08:24;8;8;
65012;PMS5003;51715;39.432;-77.518;2023-04-03T05:10:53;9;9;
65012;PMS5003;51715;39.432;-77.518;2023-04-03T05:13:21;9;8;
65012;PMS5003;51715;39.432;-77.518;2023-04-03T05:15:51;12;12;
65012;PMS5003;51715;39.432;-77.518;2023-04-03T05:18:18;9;6;
65012;PMS5003;51715;39.432;-77.518;2023-04-03T05:20:48;6;6;
65012;PMS5003;51715;39.432;-77.518;2023-04-03T05:23:17;8;5;
65012;PMS5003;51715;39.432;-77.518;2023-04-03T05:25:46;15;11;
65012;PMS5003;51715;39.432;-77.518;2023-04-03T05:28:14;9;9;
65012;PMS5003;51715;39.432;-77.518;2023-04-03T05:30:42;5;5;
65012;PMS5003;51715;39.432;-77.518;2023-04-03T05:33:11;10;7;
65012;PMS5003;51715;39.432;-77.518;2023-04-03T05:35:40;8;6;
65012;PMS5003;51715;39.432;-77.518;2023-04-03T05:38:09;10;10;
65012;PMS5003;51715;39.432;-77.518;2023-04-03T05:40:37;8;6;
65012;PMS5003;51715;39.432;-77.518;2023-04-03T05:43:05;7;6;
65012;PMS5003;51715;39.432;-77.518;2023-04-03T05:45:34;8;7;
65012;PMS5003;51715;39.432;-77.518;2023-04-03T05:48:02;6;4;
65012;PMS5003;51715;39.432;-77.518;2023-04-03T05:50:31;6;6;
65012;PMS5003;51715;39.432;-77.518;2023-04-03T05:52:59;7;7;
65012;PMS5003;51715;39.432;-77.518;2023-04-03T05:55:29;6;6;
65012;PMS5003;51715;39.432;-77.518;2023-04-03T05:57:57;8;8;
65012;PMS5003;51715;39.432;-77.518;2023-04-03T06:00:25;8;5;
65012;PMS5003;51715;39.432;-77.518;2023-04-03T06:02:53;9;7;
65012;PMS5003;51715;39.432;-77.518;2023-04-03T06:05:21;8;8;
65012;PMS5003;51715;39.432;-77.518;2023-04-03T06:07:49;8;7;
65012;PMS5003;51715;39.432;-77.518;2023-04-03T06:10:18;5;5;
65012;PMS5003;51715;39.432;-77.518;2023-04-03T06:12:46;6;6;
65012;PMS5003;51715;39.432;-77.518;2023-04-03T06:15:14;6;6;
65012;PMS5003;51715;39.432;-77.518;2023-04-03T06:17:42;4;4;
65012;PMS5003;51715;39.432;-77.518;2023-04-03T06:20:10;7;5;
65012;PMS5003;51715;39.432;-77.518;2023-04-03T06:22:39;5;5;
65012;PMS5003;51715;39.432;-77.518;2023-04-03T06:25:08;6;6;
65012;PMS5003;51715;39.432;-77.518;2023-04-03T06:27:36;5;5;
65012;PMS5003;51715;39.432;-77.518;2023-04-03T06:30:06;7;6;
65012;PMS5003;51715;39.432;-77.518;2023-04-03T06:32:35;4;4;
65012;PMS5003;51715;39.432;-77.518;2023-04-03T06:35:04;6;5;
65012;PMS5003;51715;39.432;-77.518;2023-04-03T06:37:33;5;5;
65012;PMS5003;51715;39.432;-77.518;2023-04-03T06:40:02;6;6;
65012;PMS5003;51715;39.432;-77.518;2023-04-03T06:42:31;7;6;
65012;PMS5003;51715;39.432;-77.518;2023-04-03T06:44:59;7;6;
65012;PMS5003;51715;39.432;-77.518;2023-04-03T06:47:27;6;6;
65012;PMS5003;51715;39.432;-77.518;2023-04-03T06:49:56;7;7;
65012;PMS5003;51715;39.432;-77.518;2023-04-03T06:52:24;5;4;
65012;PMS5003;51715;39.432;-77.518;2023-04-03T06:54:52;5;5;
65012;PMS5003;51715;39.432;-77.518;2023-04-03T06:57:20;6;5;
65012;PMS5003;51715;39.432;-77.518;2023-04-03T06:59:48;6;6;
65012;PMS5003;51715;39.432;-77.518;2023-04-03T07:02:16;5;4;
65012;PMS5003;51715;39.432;-77.518;2023-04-03T07:04:44;5;5;
65012;PMS5003;51715;39.432;-77.518;2023-04-03T07:07:12;7;5;
65012;PMS5003;51715;39.432;-77.518;2023-04-03T07:09:40;7;6;
65012;PMS5003;51715;39.432;-77.518;2023-04-03T07:12:09;6;6;
65012;PMS5003;51715;39.432;-77.518;2023-04-03T07:14:37;7;7;
65012;PMS5003;51715;39.432;-77.518;2023-04-03T07:17:05;7;6;
65012;PMS5003;51715;39.432;-77.518;2023-04-03T07:19:33;5;5;
65012;PMS5003;51715;39.432;-77.518;2023-04-03T07:22:01;5;5;
65012;PMS5003;51715;39.432;-77.518;2023-04-03T07:24:30;7;6;
65012;PMS5003;51715;39.432;-77.518;2023-04-03T07:26:59;6;6;
65012;PMS5003;51715;39.432;-77.518;2023-04-03T07:29:28;7;6;
65012;PMS5003;51715;39.432;-77.518;2023-04-03T07:31:56;5;5;
65012;PMS5003;51715;39.432;-77.518;2023-04-03T07:34:25;5;5;
65012;PMS5003;51715;39.432;-77.518;2023-04-03T07:36:54;5;4;
65012;PMS5003;51715;39.432;-77.518;2023-04-03T07:39:22;6;5;
65012;PMS5003;51715;39.432;-77.518;2023-04-03T07:41:51;7;6;
65012;PMS5003;51715;39.432;-77.518;2023-04-03T07:44:19;5;4;
65012;PMS5003;51715;39.432;-77.518;2023-04-03T07:46:47;6;6;
65012;PMS5003;51715;39.432;-77.518;2023-04-03T07:49:15;5;5;
65012;PMS5003;51715;39.432;-77.518;2023-04-03T07:51:44;6;4;
65012;PMS5003;51715;39.432;-77.518;2023-04-03T07:54:13;5;5;
65012;PMS5003;51715;39.432;-77.518;2023-04-03T07:56:42;6;6;
65012;PMS5003;51715;39.432;-77.518;2023-04-03T07:59:10;4;4;
65012;PMS5003;51715;39.432;-77.518;2023-04-03T08:01:39;6;5;
65012;PMS5003;51715;39.432;-77.518;2023-04-03T08:04:07;6;6;
65012;PMS5003;51715;39.432;-77.518;2023-04-03T08:06:36;8;5;
65012;PMS5003;51715;39.432;-77.518;2023-04-03T08:09:06;5;5;
65012;PMS5003;51715;39.432;-77.518;2023-04-03T08:11:35;6;6;
65012;PMS5003;51715;39.432;-77.518;2023-04-03T08:14:05;3;3;
65012;PMS5003;51715;39.432;-77.518;2023-04-03T08:16:33;6;6;
65012;PMS5003;51715;39.432;-77.518;2023-04-03T08:19:01;8;8;
65012;PMS5003;51715;39.432;-77.518;2023-04-03T08:21:29;7;5;
65012;PMS5003;51715;39.432;-77.518;2023-04-03T08:23:58;6;6;
65012;PMS5003;51715;39.432;-77.518;2023-04-03T08:26:26;6;6;
65012;PMS5003;51715;39.432;-77.518;2023-04-03T08:28:55;9;7;
65012;PMS5003;51715;39.432;-77.518;2023-04-03T08:31:24;6;5;
65012;PMS5003;51715;39.432;-77.518;2023-04-03T08:33:52;6;6;
65012;PMS5003;51715;39.432;-77.518;2023-04-03T08:36:21;7;7;
65012;PMS5003;51715;39.432;-77.518;2023-04-03T08:38:50;4;4;
65012;PMS5003;51715;39.432;-77.518;2023-04-03T08:41:22;7;7;
65012;PMS5003;51715;39.432;-77.518;2023-04-03T08:43:58;8;7;
65012;PMS5003;51715;39.432;-77.518;2023-04-03T08:46:38;5;5;
65012;PMS5003;51715;39.432;-77.518;2023-04-03T08:49:21;5;5;
65012;PMS5003;51715;39.432;-77.518;2023-04-03T08:51:54;6;6;
65012;PMS5003;51715;39.432;-77.518;2023-04-03T08:54:29;6;6;
65012;PMS5003;51715;39.432;-77.518;2023-04-03T08:57:00;7;7;
65012;PMS5003;51715;39.432;-77.518;2023-04-03T08:59:33;8;4;
65012;PMS5003;51715;39.432;-77.518;2023-04-03T09:02:04;7;6;
65012;PMS5003;51715;39.432;-77.518;2023-04-03T09:04:50;5;4;
65012;PMS5003;51715;39.432;-77.518;2023-04-03T09:07:19;5;5;
65012;PMS5003;51715;39.432;-77.518;2023-04-03T09:09:58;6;6;
65012;PMS5003;51715;39.432;-77.518;2023-04-03T09:12:28;8;8;
65012;PMS5003;51715;39.432;-77.518;2023-04-03T09:15:06;7;6;
65012;PMS5003;51715;39.432;-77.518;2023-04-03T09:17:46;5;5;
65012;PMS5003;51715;39.432;-77.518;2023-04-03T09:20:27;10;9;
65012;PMS5003;51715;39.432;-77.518;2023-04-03T09:23:05;7;4;
65012;PMS5003;51715;39.432;-77.518;2023-04-03T09:25:42;5;5;
65012;PMS5003;51715;39.432;-77.518;2023-04-03T09:28:11;8;5;
65012;PMS5003;51715;39.432;-77.518;2023-04-03T09:30:40;6;6;
65012;PMS5003;51715;39.432;-77.518;2023-04-03T09:33:08;3;3;
65012;PMS5003;51715;39.432;-77.518;2023-04-03T09:35:37;10;9;
65012;PMS5003;51715;39.432;-77.518;2023-04-03T09:38:16;7;6;
65012;PMS5003;51715;39.432;-77.518;2023-04-03T09:40:46;7;6;
65012;PMS5003;51715;39.432;-77.518;2023-04-03T09:43:32;7;5;
65012;PMS5003;51715;39.432;-77.518;2023-04-03T09:46:35;5;4;
65012;PMS5003;51715;39.432;-77.518;2023-04-03T09:49:05;6;5;
65012;PMS5003;51715;39.432;-77.518;2023-04-03T09:51:37;7;6;
65012;PMS5003;51715;39.432;-77.518;2023-04-03T09:54:23;7;7;
65012;PMS5003;51715;39.432;-77.518;2023-04-03T09:56:57;7;6;
65012;PMS5003;51715;39.432;-77.518;2023-04-03T09:59:32;6;5;
65012;PMS5003;51715;39.432;-77.518;2023-04-03T10:02:03;5;5;
65012;PMS5003;51715;39.432;-77.518;2023-04-03T10:04:47;6;6;
65012;PMS5003;51715;39.432;-77.518;2023-04-03T10:07:32;5;4;
65012;PMS5003;51715;39.432;-77.518;2023-04-03T10:10:03;6;6;
65012;PMS5003;51715;39.432;-77.518;2023-04-03T10:12:44;6;5;
65012;PMS5003;51715;39.432;-77.518;2023-04-03T10:15:13;6;6;
65012;PMS5003;51715;39.432;-77.518;2023-04-03T10:17:49;7;5;
65012;PMS5003;51715;39.432;-77.518;2023-04-03T10:20:26;7;6;
65012;PMS5003;51715;39.432;-77.518;2023-04-03T10:23:03;7;6;
65012;PMS5003;51715;39.432;-77.518;2023-04-03T10:25:43;8;8;
65012;PMS5003;51715;39.432;-77.518;2023-04-03T10:28:24;7;5;
65012;PMS5003;51715;39.432;-77.518;2023-04-03T10:31:03;6;6;
65012;PMS5003;51715;39.432;-77.518;2023-04-03T10:33:44;6;6;
65012;PMS5003;51715;39.432;-77.518;2023-04-03T10:36:24;5;5;
65012;PMS5003;51715;39.432;-77.518;2023-04-03T10:39:02;5;5;
65012;PMS5003;51715;39.432;-77.518;2023-04-03T10:41:43;6;6;
65012;PMS5003;51715;39.432;-77.518;2023-04-03T10:44:26;5;5;
65012;PMS5003;51715;39.432;-77.518;2023-04-03T10:47:05;4;4;
65012;PMS5003;51715;39.432;-77.518;2023-04-03T10:49:45;6;6;
65012;PMS5003;51715;39.432;-77.518;2023-04-03T10:52:23;9;6;
65012;PMS5003;51715;39.432;-77.518;2023-04-03T10:54:58;6;6;
65012;PMS5003;51715;39.432;-77.518;2023-04-03T10:57:35;4;4;
65012;PMS5003;51715;39.432;-77.518;2023-04-03T11:00:04;7;7;
65012;PMS5003;51715;39.432;-77.518;2023-04-03T11:02:41;6;6;
65012;PMS5003;51715;39.432;-77.518;2023-04-03T11:05:18;6;6;
65012;PMS5003;51715;39.432;-77.518;2023-04-03T11:07:56;8;6;
65012;PMS5003;51715;39.432;-77.518;2023-04-03T11:10:31;7;7;
65012;PMS5003;51715;39.432;-77.518;2023-04-03T11:13:08;7;7;
65012;PMS5003;51715;39.432;-77.518;2023-04-03T11:15:39;7;6;
65012;PMS5003;51715;39.432;-77.518;2023-04-03T11:18:09;8;7;
65012;PMS5003;51715;39.432;-77.518;2023-04-03T11:20:43;7;6;
65012;PMS5003;51715;39.432;-77.518;2023-04-03T11:23:19;7;7;
65012;PMS5003;51715;39.432;-77.518;2023-04-03T11:25:51;6;6;
65012;PMS5003;51715;39.432;-77.518;2023-04-03T11:28:27;11;9;
65012;PMS5003;51715;39.432;-77.518;2023-04-03T11:30:58;9;9;
65012;PMS5003;51715;39.432;-77.518;2023-04-03T11:33:40;10;10;
65012;PMS5003;51715;39.432;-77.518;2023-04-03T11:36:18;7;7;
65012;PMS5003;51715;39.432;-77.518;2023-04-03T11:38:52;8;7;
65012;PMS5003;51715;39.432;-77.518;2023-04-03T11:41:25;7;7;
65012;PMS5003;51715;39.432;-77.518;2023-04-03T11:43:56;5;5;
65012;PMS5003;51715;39.432;-77.518;2023-04-03T11:46:52;8;7;
65012;PMS5003;51715;39.432;-77.518;2023-04-03T11:51:38;8;8;
65012;PMS5003;51715;39.432;-77.518;2023-04-03T11:54:44;7;6;
65012;PMS5003;51715;39.432;-77.518;2023-04-03T11:58:10;7;7;
65012;PMS5003;51715;39.432;-77.518;2023-04-03T12:00:57;10;7;
65012;PMS5003;51715;39.432;-77.518;2023-04-03T12:03:32;5;5;
65012;PMS5003;51715;39.432;-77.518;2023-04-03T12:04:30;4;4;
65012;PMS5003;51715;39.432;-77.518;2023-04-03T12:07:18;6;6;
65012;PMS5003;51715;39.432;-77.518;2023-04-03T12:09:56;11;9;
65012;PMS5003;51715;39.432;-77.518;2023-04-03T12:12:29;9;7;
65012;PMS5003;51715;39.432;-77.518;2023-04-03T12:16:05;6;6;
65012;PMS5003;51715;39.432;-77.518;2023-04-03T12:18:53;9;8;
65012;PMS5003;51715;39.432;-77.518;2023-04-03T12:22:05;8;8;
65012;PMS5003;51715;39.432;-77.518;2023-04-03T12:24:42;6;6;
65012;PMS5003;51715;39.432;-77.518;2023-04-03T12:27:44;11;9;
65012;PMS5003;51715;39.432;-77.518;2023-04-03T12:30:15;8;8;
65012;PMS5003;51715;39.432;-77.518;2023-04-03T12:33:01;6;6;
65012;PMS5003;51715;39.432;-77.518;2023-04-03T12:35:44;9;7;
65012;PMS5003;51715;39.432;-77.518;2023-04-03T12:38:44;8;7;
65012;PMS5003;51715;39.432;-77.518;2023-04-03T12:41:28;3;3;
65012;PMS5003;51715;39.432;-77.518;2023-04-03T12:44:38;10;9;
65012;PMS5003;51715;39.432;-77.518;2023-04-03T12:47:19;4;4;
65012;PMS5003;51715;39.432;-77.518;2023-04-03T12:49:53;7;7;
65012;PMS5003;51715;39.432;-77.518;2023-04-03T12:52:27;7;7;
65012;PMS5003;51715;39.432;-77.518;2023-04-03T12:55:00;6;6;
65012;PMS5003;51715;39.432;-77.518;2023-04-03T12:57:30;7;7;
65012;PMS5003;51715;39.432;-77.518;2023-04-03T13:00:00;8;7;
65012;PMS5003;51715;39.432;-77.518;2023-04-03T13:02:48;6;6;
65012;PMS5003;51715;39.432;-77.518;2023-04-03T13:05:18;8;7;
65012;PMS5003;51715;39.432;-77.518;2023-04-03T13:07:49;12;10;
65012;PMS5003;51715;39.432;-77.518;2023-04-03T13:10:23;6;6;
65012;PMS5003;51715;39.432;-77.518;2023-04-03T13:12:52;7;7;
65012;PMS5003;51715;39.432;-77.518;2023-04-03T13:15:23;8;7;
65012;PMS5003;51715;39.432;-77.518;2023-04-03T13:17:54;7;7;
65012;PMS5003;51715;39.432;-77.518;2023-04-03T13:20:24;8;6;
65012;PMS5003;51715;39.432;-77.518;2023-04-03T13:22:55;6;6;
65012;PMS5003;51715;39.432;-77.518;2023-04-03T13:25:28;7;6;
65012;PMS5003;51715;39.432;-77.518;2023-04-03T13:28:01;7;7;
65012;PMS5003;51715;39.432;-77.518;2023-04-03T13:30:33;6;5;
65012;PMS5003;51715;39.432;-77.518;2023-04-03T13:33:05;5;5;
65012;PMS5003;51715;39.432;-77.518;2023-04-03T13:35:48;6;6;
65012;PMS5003;51715;39.432;-77.518;2023-04-03T13:38:25;6;6;
65012;PMS5003;51715;39.432;-77.518;2023-04-03T13:40:56;8;8;
65012;PMS5003;51715;39.432;-77.518;2023-04-03T13:43:28;7;7;
65012;PMS5003;51715;39.432;-77.518;2023-04-03T13:46:01;7;7;
65012;PMS5003;51715;39.432;-77.518;2023-04-03T13:48:40;5;4;
65012;PMS5003;51715;39.432;-77.518;2023-04-03T13:51:21;7;7;
65012;PMS5003;51715;39.432;-77.518;2023-04-03T13:53:54;7;6;
65012;PMS5003;51715;39.432;-77.518;2023-04-03T13:56:26;8;8;
65012;PMS5003;51715;39.432;-77.518;2023-04-03T13:59:03;8;8;
65012;PMS5003;51715;39.432;-77.518;2023-04-03T14:01:42;9;8;
65012;PMS5003;51715;39.432;-77.518;2023-04-03T14:04:15;8;8;
65012;PMS5003;51715;39.432;-77.518;2023-04-03T14:06:46;7;7;
65012;PMS5003;51715;39.432;-77.518;2023-04-03T14:09:17;6;6;
65012;PMS5003;51715;39.432;-77.518;2023-04-03T14:11:47;5;5;
65012;PMS5003;51715;39.432;-77.518;2023-04-03T14:14:18;6;6;
65012;PMS5003;51715;39.432;-77.518;2023-04-03T14:16:53;6;5;
65012;PMS5003;51715;39.432;-77.518;2023-04-03T14:19:24;6;5;
65012;PMS5003;51715;39.432;-77.518;2023-04-03T14:21:56;6;4;
65012;PMS5003;51715;39.432;-77.518;2023-04-03T14:24:24;5;5;
65012;PMS5003;51715;39.432;-77.518;2023-04-03T14:26:53;6;6;
65012;PMS5003;51715;39.432;-77.518;2023-04-03T14:29:22;6;6;
65012;PMS5003;51715;39.432;-77.518;2023-04-03T14:31:50;4;4;
65012;PMS5003;51715;39.432;-77.518;2023-04-03T14:34:19;5;5;
65012;PMS5003;51715;39.432;-77.518;2023-04-03T14:36:48;7;7;
65012;PMS5003;51715;39.432;-77.518;2023-04-03T14:39:18;5;4;
65012;PMS5003;51715;39.432;-77.518;2023-04-03T14:41:47;4;4;
65012;PMS5003;51715;39.432;-77.518;2023-04-03T14:44:15;3;3;
65012;PMS5003;51715;39.432;-77.518;2023-04-03T14:46:44;5;5;
65012;PMS5003;51715;39.432;-77.518;2023-04-03T14:49:14;6;6;
65012;PMS5003;51715;39.432;-77.518;2023-04-03T14:51:45;4;4;
65012;PMS5003;51715;39.432;-77.518;2023-04-03T14:54:15;5;5;
65012;PMS5003;51715;39.432;-77.518;2023-04-03T14:56:45;5;5;
65012;PMS5003;51715;39.432;-77.518;2023-04-03T14:59:13;3;3;
65012;PMS5003;51715;39.432;-77.518;2023-04-03T15:01:43;5;5;
65012;PMS5003;51715;39.432;-77.518;2023-04-03T15:04:13;3;3;
65012;PMS5003;51715;39.432;-77.518;2023-04-03T15:06:44;4;4;
65012;PMS5003;51715;39.432;-77.518;2023-04-03T15:09:18;4;4;
65012;PMS5003;51715;39.432;-77.518;2023-04-03T15:11:48;3;3;
65012;PMS5003;51715;39.432;-77.518;2023-04-03T15:14:18;4;4;
65012;PMS5003;51715;39.432;-77.518;2023-04-03T15:16:48;5;5;
65012;PMS5003;51715;39.432;-77.518;2023-04-03T15:19:17;4;4;
65012;PMS5003;51715;39.432;-77.518;2023-04-03T15:21:46;8;6;
65012;PMS5003;51715;39.432;-77.518;2023-04-03T15:24:14;4;4;
65012;PMS5003;51715;39.432;-77.518;2023-04-03T15:26:42;2;2;
65012;PMS5003;51715;39.432;-77.518;2023-04-03T15:29:12;3;3;
65012;PMS5003;51715;39.432;-77.518;2023-04-03T15:31:40;3;3;
65012;PMS5003;51715;39.432;-77.518;2023-04-03T15:34:09;7;4;
65012;PMS5003;51715;39.432;-77.518;2023-04-03T15:36:38;2;2;
65012;PMS5003;51715;39.432;-77.518;2023-04-03T15:39:07;3;3;
65012;PMS5003;51715;39.432;-77.518;2023-04-03T15:41:35;3;3;
65012;PMS5003;51715;39.432;-77.518;2023-04-03T15:44:04;5;5;
65012;PMS5003;51715;39.432;-77.518;2023-04-03T15:46:33;2;2;
65012;PMS5003;51715;39.432;-77.518;2023-04-03T15:49:02;4;4;
65012;PMS5003;51715;39.432;-77.518;2023-04-03T15:51:30;4;4;
65012;PMS5003;51715;39.432;-77.518;2023-04-03T15:53:59;6;6;
65012;PMS5003;51715;39.432;-77.518;2023-04-03T15:56:28;5;5;
65012;PMS5003;51715;39.432;-77.518;2023-04-03T15:58:56;1;1;
65012;PMS5003;51715;39.432;-77.518;2023-04-03T16:01:26;4;4;
65012;PMS5003;51715;39.432;-77.518;2023-04-03T16:03:54;1;1;
65012;PMS5003;51715;39.432;-77.518;2023-04-03T16:06:24;2;2;
65012;PMS5003;51715;39.432;-77.518;2023-04-03T16:08:54;4;3;
65012;PMS5003;51715;39.432;-77.518;2023-04-03T16:11:24;3;3;
65012;PMS5003;51715;39.432;-77.518;2023-04-03T16:13:54;3;3;
65012;PMS5003;51715;39.432;-77.518;2023-04-03T16:16:23;6;5;
65012;PMS5003;51715;39.432;-77.518;2023-04-03T16:18:53;3;2;
65012;PMS5003;51715;39.432;-77.518;2023-04-03T16:21:21;3;3;
65012;PMS5003;51715;39.432;-77.518;2023-04-03T16:23:50;3;3;
65012;PMS5003;51715;39.432;-77.518;2023-04-03T16:26:20;4;3;
65012;PMS5003;51715;39.432;-77.518;2023-04-03T16:28:49;2;2;
65012;PMS5003;51715;39.432;-77.518;2023-04-03T16:31:19;3;3;
65012;PMS5003;51715;39.432;-77.518;2023-04-03T16:33:48;4;4;
65012;PMS5003;51715;39.432;-77.518;2023-04-03T16:36:17;1;1;
65012;PMS5003;51715;39.432;-77.518;2023-04-03T16:38:46;5;5;
65012;PMS5003;51715;39.432;-77.518;2023-04-03T16:41:14;2;2;
65012;PMS5003;51715;39.432;-77.518;2023-04-03T16:43:42;3;3;
65012;PMS5003;51715;39.432;-77.518;2023-04-03T16:46:11;2;1;